Lost City, West Virginia
Current Conditions -  °F | °C
As of 10:15 PM on Saturday 20 Dec 2014 (Local Time) from KW99 Reporting Station
Overcast Overcast  
Wind Chill: 32°   Ceiling: 4200
Heat Index: 32°   Visibility: 10mi
Dew Point: 27°   Wind: 0mph
Humidity: 83%   Direction: NA
Pressure: 30.26"   Gusts: NA
Location:  38.93°N, 78.83°W
Report Text: KW99 210315Z AUTO 00000KT 10SM BKN042 OVC075 00/M03 A3026 RMK AO2 T00001026
Loading
Personal Weather Stations






























Interactive Weather Map New forecast layout! Learn more

10-Day Weather Forecast

Advertisements
Track Severe Weather on mobile